Time;durP1;ratioP1;P1;durP2;ratioP2;P2;SDS_P1;SDS_P2;PMS_P1;PMS_P2;Temp;Humidity;BMP_temperature;BMP_pressure;BME280_temperature;BME280_humidity;BME280_pressure;Samples;Min_cycle;Max_cycle;Signal;HPM_P1;HPM_P2
2022/02/10 00:22:02;;;;;;;104.28;49.40;;;;;;;;;;5114612;28;20063;-64
2022/02/10 00:35:33;;;;;;;125.57;54.92;;;;;;;;;;5114352;28;20046;-64
2022/02/10 00:38:00;;;;;;;75.15;36.58;;;;;;;;;;5114551;28;20058;-63
2022/02/10 00:40:27;;;;;;;80.85;35.60;;;;;;;;;;5114473;28;20020;-63
2022/02/10 00:42:53;;;;;;;68.85;35.63;;;;;;;;;;5096200;28;20031;-64
2022/02/10 00:45:21;;;;;;;67.82;31.95;;;;;;;;;;5114427;28;20349;-64
2022/02/10 00:47:56;;;;;;;74.00;33.90;;;;;;;;;;5114471;28;20073;-63
2022/02/10 00:50:24;;;;;;;59.63;29.15;;;;;;;;;;5114410;28;20023;-64
2022/02/10 00:52:58;;;;;;;60.80;28.50;;;;;;;;;;5114054;28;20012;-63
2022/02/10 00:55:27;;;;;;;82.30;41.78;;;;;;;;;;5114308;28;20015;-62
2022/02/10 00:57:54;;;;;;;94.55;42.85;;;;;;;;;;5114216;28;20476;-62
2022/02/10 01:13:57;;;;;;;97.22;48.60;;;;;;;;;;5113644;28;20074;-66
2022/02/10 01:29:33;;;;;;;89.72;43.30;;;;;;;;;;5113623;28;20031;-63
2022/02/10 01:30:07;;;;;;;91.88;41.47;;;;;;;;;;5113536;28;19994;-64
2022/02/10 01:32:33;;;;;;;71.30;36.75;;;;;;;;;;5113692;28;20076;-63
2022/02/10 01:35:00;;;;;;;73.70;37.50;;;;;;;;;;5113363;28;20095;-64
2022/02/10 01:37:26;;;;;;;72.68;39.35;;;;;;;;;;5113616;28;20028;-63
2022/02/10 01:40:00;;;;;;;77.00;37.38;;;;;;;;;;5095266;28;20031;-63
2022/02/10 02:04:14;;;;;;;83.88;38.17;;;;;;;;;;5115274;28;20035;-64
2022/02/10 02:06:46;;;;;;;72.70;36.78;;;;;;;;;;5117671;28;20472;-64
2022/02/10 02:09:14;;;;;;;80.43;37.53;;;;;;;;;;5117589;28;20031;-64
2022/02/10 02:11:41;;;;;;;76.47;40.40;;;;;;;;;;5117492;28;20617;-65
2022/02/10 02:14:09;;;;;;;82.80;41.58;;;;;;;;;;5117093;28;20075;-64
2022/02/10 02:16:35;;;;;;;100.53;46.92;;;;;;;;;;5117349;28;20049;-66
2022/02/10 02:19:02;;;;;;;177.48;73.03;;;;;;;;;;5098976;28;20066;-64
2022/02/10 02:21:30;;;;;;;277.65;108.38;;;;;;;;;;5117266;28;20024;-65
2022/02/10 02:23:56;;;;;;;261.45;103.88;;;;;;;;;;5117225;28;20059;-65
2022/02/10 02:26:26;;;;;;;185.88;75.97;;;;;;;;;;5098833;28;20020;-66
2022/02/10 02:28:57;;;;;;;149.82;62.28;;;;;;;;;;5117176;28;20039;-64
2022/02/10 02:31:29;;;;;;;104.57;48.45;;;;;;;;;;5117167;28;20028;-64
2022/02/10 03:07:17;;;;;;;80.45;37.80;;;;;;;;;;5116441;28;20031;-65
2022/02/10 03:09:54;;;;;;;62.58;33.33;;;;;;;;;;5116433;28;20499;-66
2022/02/10 03:12:20;;;;;;;62.85;30.52;;;;;;;;;;5116373;28;20118;-66
2022/02/10 03:14:51;;;;;;;50.78;26.70;;;;;;;;;;5097369;28;20179;-64
2022/02/10 04:22:15;;;;;;;46.85;27.95;;;;;;;;;;5114956;28;20050;-67
2022/02/10 04:38:49;;;;;;;53.15;30.10;;;;;;;;;;5114283;28;20541;-65
2022/02/10 05:08:16;;;;;;;76.88;39.45;;;;;;;;;;5113802;28;20043;-67
2022/02/10 05:14:34;;;;;;;61.17;33.40;;;;;;;;;;5113349;28;20042;-65
2022/02/10 05:24:22;;;;;;;72.60;40.28;;;;;;;;;;5113852;28;20086;-65
2022/02/10 05:41:16;;;;;;;60.65;31.92;;;;;;;;;;5113532;28;20042;-65
2022/02/10 05:51:47;;;;;;;68.25;34.60;;;;;;;;;;5113486;28;20024;-67
2022/02/10 06:49:39;;;;;;;171.15;85.47;;;;;;;;;;5042397;28;20464;-64
2022/02/10 06:52:15;;;;;;;188.10;95.35;;;;;;;;;;5032555;28;20037;-65
2022/02/10 06:54:59;;;;;;;150.88;77.35;;;;;;;;;;5033375;28;20151;-65
2022/02/10 07:03:29;;;;;;;175.02;88.38;;;;;;;;;;5032780;28;20048;-64
2022/02/10 07:06:10;;;;;;;168.40;86.75;;;;;;;;;;5033002;28;20029;-64
2022/02/10 07:43:36;;;;;;;171.10;90.35;;;;;;;;;;4984691;28;20078;-64
2022/02/10 07:47:29;;;;;;;164.75;87.30;;;;;;;;;;5054287;28;20040;-67
2022/02/10 07:53:18;;;;;;;152.77;86.35;;;;;;;;;;5034571;28;20033;-67
2022/02/10 07:56:11;;;;;;;183.07;92.85;;;;;;;;;;5054175;28;20094;-65
2022/02/10 08:26:57;;;;;;;131.38;73.65;;;;;;;;;;5094390;28;20085;-69
2022/02/10 08:51:21;;;;;;;138.25;70.60;;;;;;;;;;5093878;28;20568;-68
2022/02/10 08:58:47;;;;;;;135.95;68.60;;;;;;;;;;5093297;28;20036;-66
2022/02/10 09:03:53;;;;;;;87.93;47.75;;;;;;;;;;5093642;28;20024;-66
2022/02/10 09:18:14;;;;;;;37.10;21.00;;;;;;;;;;5092807;28;20024;-65
2022/02/10 09:58:08;;;;;;;38.80;20.55;;;;;;;;;;5092559;28;20426;-64
2022/02/10 10:01:01;;;;;;;40.08;21.25;;;13.50;99.90;;;;;;5092805;28;20103;-64
2022/02/10 10:03:33;;;;;;;41.50;22.40;;;13.70;95.70;;;;;;5092326;28;20080;-65
2022/02/10 10:06:16;;;;;;;41.70;19.40;;;13.80;91.00;;;;;;5092864;28;20368;-65
2022/02/10 10:17:14;;;;;;;31.40;14.20;;;14.40;87.90;;;;;;5092223;28;20459;-65
2022/02/10 10:19:55;;;;;;;24.55;14.45;;;14.60;85.70;;;;;;5092668;28;20024;-66
2022/02/10 10:50:54;;;;;;;18.50;10.40;;;18.30;75.20;;;;;;5096111;28;20504;-65
2022/02/10 10:53:36;;;;;;;15.68;9.25;;;19.80;68.60;;;;;;5077963;28;20119;-65
2022/02/10 10:59:30;;;;;;;14.52;10.15;;;;;;;;;;5096019;28;20069;-67
2022/02/10 11:39:14;;;;;;;19.35;12.90;;;23.10;54.30;;;;;;5095432;28;20115;-67
2022/02/10 14:17:48;;;;;;;19.33;8.93;;;17.40;65.00;;;;;;4975094;28;20046;-66
2022/02/10 14:28:16;;;;;;;36.45;16.88;;;;;;;;;;4955846;29;20027;-65
2022/02/10 14:30:43;;;;;;;29.90;9.93;;;;;;;;;;4939694;29;20102;-64
2022/02/10 14:33:09;;;;;;;27.63;14.43;;;16.20;68.00;;;;;;4955774;29;20042;-64
2022/02/10 14:35:49;;;;;;;35.05;18.83;;;15.50;70.00;;;;;;4955532;29;20121;-64
2022/02/10 14:43:30;;;;;;;27.95;13.32;;;15.70;71.10;;;;;;4955550;28;20101;-64
2022/02/10 15:49:25;;;;;;;67.15;34.30;;;15.90;71.90;;;;;;5095083;28;20389;-66
2022/02/10 16:14:10;;;;;;;68.80;36.92;;;13.00;80.70;;;;;;5094633;28;20043;-66
2022/02/10 16:18:49;;;;;;;104.85;57.38;;;13.00;99.90;;;;;;5094617;28;20043;-65
2022/02/10 16:21:30;;;;;;;122.63;61.17;;;12.90;89.60;;;;;;5094622;28;20085;-65
2022/02/10 16:24:02;;;;;;;92.70;52.15;;;12.70;89.80;;;;;;5093889;28;20032;-66
2022/02/10 16:26:42;;;;;;;108.65;62.40;;;;;;;;;;5075872;28;20032;-65
2022/02/10 16:29:15;;;;;;;138.20;69.03;;;;;;;;;;5094475;28;20031;-65
2022/02/10 16:31:42;;;;;;;141.35;71.63;;;12.60;88.70;;;;;;5094110;28;20405;-67
2022/02/10 16:34:09;;;;;;;178.63;90.60;;;;;;;;;;5075872;28;20460;-66
2022/02/10 16:36:35;;;;;;;202.60;105.35;;;;;;;;;;5094208;28;20016;-66
2022/02/10 16:39:02;;;;;;;205.45;107.40;;;;;;;;;;5094275;28;20055;-66
2022/02/10 16:41:28;;;;;;;232.65;122.57;;;;;;;;;;5094528;28;20027;-66
2022/02/10 16:43:54;;;;;;;226.27;113.22;;;;;;;;;;5094152;28;20464;-68
2022/02/10 16:46:22;;;;;;;210.43;105.13;;;;;;;;;;5094008;28;20024;-68
2022/02/10 16:48:48;;;;;;;220.68;101.43;;;;;;;;;;5076140;28;20094;-67
2022/02/10 16:51:15;;;;;;;229.80;102.45;;;;;;;;;;5092975;28;20016;-67
2022/02/10 16:53:46;;;;;;;252.02;113.13;;;;;;;;;;5092540;28;20055;-65
2022/02/10 16:56:19;;;;;;;;;;;;;;;;;;5075406;28;20035;-64
2022/02/10 17:04:36;;;;;;;274.75;132.95;;;;;;;;;;5061039;28;20036;-64
2022/02/10 17:21:02;;;;;;;173.80;85.32;;;;;;;;;;5092909;28;20039;-66
2022/02/10 17:26:32;;;;;;;198.63;99.80;;;;;;;;;;5092453;28;20035;-65
2022/02/10 17:29:07;;;;;;;183.82;83.32;;;;;;;;;;5075105;28;20024;-67
2022/02/10 17:34:21;;;;;;;198.15;90.50;;;;;;;;;;5092636;28;20044;-69
2022/02/10 17:43:03;;;;;;;135.98;63.00;;;;;;;;;;5092774;28;20031;-70
2022/02/10 17:45:49;;;;;;;117.30;55.28;;;;;;;;;;5092664;28;20471;-68
2022/02/10 17:53:45;;;;;;;88.50;46.92;;;;;;;;;;5092742;28;20145;-67
2022/02/10 17:56:12;;;;;;;87.43;43.58;;;;;;;;;;5092620;28;20020;-67
2022/02/10 17:58:38;;;;;;;99.75;50.80;;;;;;;;;;5092819;28;20059;-67
2022/02/10 18:01:05;;;;;;;98.05;52.83;;;;;;;;;;5092949;28;20028;-65
2022/02/10 18:03:31;;;;;;;101.20;50.47;;;;;;;;;;5093090;28;20031;-65
2022/02/10 18:08:42;;;;;;;75.75;43.30;;;;;;;;;;5092984;28;20119;-66
2022/02/10 18:13:55;;;;;;;93.22;45.28;;;;;;;;;;5092386;28;20510;-66
2022/02/10 18:16:27;;;;;;;100.25;53.63;;;;;;;;;;5092284;28;20036;-65
2022/02/10 18:18:59;;;;;;;102.72;52.22;;;;;;;;;;5092855;28;20020;-66
2022/02/10 18:21:48;;;;;;;124.82;59.45;;;;;;;;;;5074580;28;20365;-65
2022/02/10 18:29:35;;;;;;;125.35;60.25;;;;;;;;;;5092783;28;20039;-65
2022/02/10 19:10:00;;;;;;;208.27;93.47;;;;;;;;;;5095966;28;20028;-67
2022/02/10 19:12:30;;;;;;;185.07;86.95;;;;;;;;;;5077668;28;20388;-69
2022/02/10 19:15:11;;;;;;;175.32;86.85;;;;;;;;;;5094613;28;20484;-69
2022/02/10 19:17:37;;;;;;;158.75;74.97;;;;;;;;;;5095402;28;20032;-68
2022/02/10 19:20:05;;;;;;;99.18;54.40;;;;;;;;;;5093843;28;20391;-67
2022/02/10 19:22:32;;;;;;;88.68;41.00;;;;;;;;;;5095340;28;20077;-67
2022/02/10 19:24:58;;;;;;;104.75;53.08;;;;;;;;;;5087659;28;20494;-68
2022/02/10 19:27:25;;;;;;;86.53;40.88;;;;;;;;;;5116002;28;20016;-68
2022/02/10 19:29:57;;;;;;;86.78;44.22;;;;;;;;;;5097728;28;20022;-68
2022/02/10 19:32:25;;;;;;;118.72;50.03;;;;;;;;;;5115971;28;20460;-68
2022/02/10 19:34:53;;;;;;;110.93;45.85;;;;;;;;;;5115956;28;20019;-67
2022/02/10 19:37:19;;;;;;;102.75;48.10;;;;;;;;;;5115900;28;20157;-71
2022/02/10 19:39:52;;;;;;;87.78;48.58;;;;;;;;;;5097403;28;20030;-68
2022/02/10 19:42:18;;;;;;;94.63;46.58;;;;;;;;;;5115712;28;20019;-67
2022/02/10 19:44:44;;;;;;;99.63;50.10;;;;;;;;;;5115677;28;20476;-68
2022/02/10 19:47:10;;;;;;;97.55;49.42;;;;;;;;;;5097082;28;20019;-66
2022/02/10 19:49:39;;;;;;;97.50;50.25;;;;;;;;;;5115856;28;20028;-65
2022/02/10 19:52:06;;;;;;;99.63;50.40;;;;;;;;;;5115457;28;20027;-66
2022/02/10 19:54:38;;;;;;;115.20;55.28;;;;;;;;;;5115456;28;20027;-66
2022/02/10 19:57:05;;;;;;;119.90;57.30;;;;;;;;;;5114331;28;20027;-65
2022/02/10 19:59:32;;;;;;;106.78;54.85;;;;;;;;;;5115303;28;20102;-65
2022/02/10 20:01:59;;;;;;;102.60;55.72;;;;;;;;;;5115628;28;20112;-65
2022/02/10 20:04:25;;;;;;;108.63;54.58;;;;;;;;;;5115291;28;20016;-65
2022/02/10 20:06:52;;;;;;;104.03;54.97;;;;;;;;;;5106434;28;20020;-66
2022/02/10 20:09:19;;;;;;;108.03;55.83;;;;;;;;;;5094827;28;20471;-66
2022/02/10 20:11:51;;;;;;;117.47;62.25;;;;;;;;;;5076541;28;20114;-66
2022/02/10 20:14:18;;;;;;;116.10;64.70;;;;;;;;;;5094346;28;20079;-67
2022/02/10 20:16:45;;;;;;;131.90;65.82;;;;;;;;;;5094352;28;20491;-66
2022/02/10 20:19:11;;;;;;;130.68;69.38;;;;;;;;;;5076219;28;20529;-66
2022/02/10 20:21:37;;;;;;;138.48;70.85;;;;;;;;;;5094271;28;20461;-66
2022/02/10 20:24:04;;;;;;;131.93;67.78;;;;;;;;;;5094266;28;20032;-67
2022/02/10 20:26:30;;;;;;;137.30;72.00;;;;;;;;;;5097619;28;20020;-65
2022/02/10 20:28:56;;;;;;;135.30;65.75;;;;;;;;;;5113958;28;20046;-66
2022/02/10 20:31:23;;;;;;;124.32;63.88;;;;;;;;;;5114724;28;20031;-66
2022/02/10 20:33:49;;;;;;;130.90;65.70;;;;;;;;;;5114839;28;20031;-67
2022/02/10 20:36:16;;;;;;;126.25;64.93;;;;;;;;;;5114480;28;20460;-67
2022/02/10 20:38:46;;;;;;;128.15;70.15;;;;;;;;;;5096477;28;20030;-68
2022/02/10 20:41:15;;;;;;;137.35;68.60;;;;;;;;;;5096403;28;20038;-68
2022/02/10 20:43:43;;;;;;;133.18;67.68;;;;;;;;;;5096314;28;20100;-66
2022/02/10 20:46:12;;;;;;;151.55;77.60;;;;;;;;;;5115050;28;20024;-67
2022/02/10 20:48:40;;;;;;;152.88;77.85;;;;;;;;;;5115020;28;20019;-68
2022/02/10 20:51:12;;;;;;;179.02;83.80;;;;;;;;;;5096567;28;20464;-68
2022/02/10 20:53:40;;;;;;;190.40;92.18;;;;;;;;;;5114544;28;20028;-68
2022/02/10 20:56:08;;;;;;;157.63;81.47;;;;;;;;;;5114444;28;20031;-66
2022/02/10 20:58:34;;;;;;;135.95;72.53;;;;;;;;;;5114592;28;20063;-74
2022/02/10 21:01:03;;;;;;;124.20;67.22;;;;;;;;;;5096634;28;20479;-72
2022/02/10 21:03:31;;;;;;;129.52;67.30;;;;;;;;;;5075339;28;20030;-68
2022/02/10 21:06:09;;;;;;;147.35;73.15;;;;;;;;;;5094074;28;20097;-66
2022/02/10 21:08:44;;;;;;;134.20;73.10;;;;;;;;;;5093597;28;20107;-65
2022/02/10 21:11:11;;;;;;;165.70;80.60;;;;;;;;;;5093883;28;20059;-71
2022/02/10 21:13:38;;;;;;;137.85;72.07;;;;;;;;;;5074956;28;20048;-66
2022/02/10 21:16:04;;;;;;;132.82;72.95;;;;;;;;;;5089134;28;20016;-67
2022/02/10 21:18:30;;;;;;;163.13;82.85;;;;;;;;;;5090424;28;20043;-69
2022/02/10 21:21:04;;;;;;;150.27;81.80;;;;;;;;;;5090468;28;20081;-67
2022/02/10 21:26:01;;;;;;;153.13;81.13;;;;;;;;;;5093442;28;20122;-71
2022/02/10 21:28:36;;;;;;;158.18;84.97;;;;;;;;;;5093411;28;20028;-69
2022/02/10 21:31:05;;;;;;;168.05;85.88;;;;;;;;;;5075194;28;20036;-65
2022/02/10 21:38:54;;;;;;;135.95;72.75;;;;;;;;;;5084618;28;20030;-66
2022/02/10 21:59:52;;;;;;;140.52;75.03;;;;;;;;;;5093040;28;20028;-65
2022/02/10 22:18:47;;;;;;;149.38;78.75;;;;;;;;;;5052416;28;20095;-65
2022/02/10 22:21:19;;;;;;;153.15;83.75;;;;;;;;;;5054482;28;20111;-65
2022/02/10 22:23:47;;;;;;;158.73;80.57;;;;;;;;;;5056717;28;20380;-64
2022/02/10 22:26:26;;;;;;;166.13;82.82;;;;;;;;;;5056721;28;20025;-65
2022/02/10 22:29:10;;;;;;;148.50;80.13;;;;;;;;;;5055337;28;20116;-63
2022/02/10 22:36:34;;;;;;;119.93;65.47;;;;;;;;;;5056513;28;20541;-64
2022/02/10 22:39:02;;;;;;;107.68;60.35;;;;;;;;;;5055066;28;20381;-64
2022/02/10 22:41:29;;;;;;;130.45;66.13;;;;;;;;;;5055073;28;20132;-64
2022/02/10 22:43:56;;;;;;;121.78;63.78;;;;;;;;;;5056581;28;20466;-63
2022/02/10 22:46:22;;;;;;;108.10;58.20;;;;;;;;;;5056338;28;20021;-63
2022/02/10 22:48:49;;;;;;;99.35;55.35;;;;;;;;;;5054937;28;20111;-64
2022/02/10 22:51:17;;;;;;;100.28;54.80;;;;;;;;;;5056450;28;20427;-64
2022/02/10 22:53:43;;;;;;;101.32;56.05;;;;;;;;;;5054876;28;20051;-64
2022/02/10 22:56:11;;;;;;;101.40;54.03;;;;;;;;;;5056132;28;20147;-64
2022/02/10 22:58:39;;;;;;;101.13;54.60;;;;;;;;;;5055997;28;20056;-65
2022/02/10 23:01:05;;;;;;;102.35;55.25;;;;;;;;;;5055939;28;20064;-64
2022/02/10 23:03:36;;;;;;;100.00;56.50;;;;;;;;;;5055975;28;20062;-64
2022/02/10 23:06:03;;;;;;;103.72;57.30;;;;;;;;;;5056063;28;20090;-63
2022/02/10 23:08:30;;;;;;;104.30;57.17;;;;;;;;;;5055895;28;20103;-66
2022/02/10 23:10:56;;;;;;;95.90;56.05;;;;;;;;;;5055849;28;20033;-67
2022/02/10 23:13:27;;;;;;;97.95;54.47;;;;;;;;;;5058498;28;20492;-65
2022/02/10 23:15:53;;;;;;;95.47;53.38;;;;;;;;;;5096092;28;20032;-65
2022/02/10 23:18:21;;;;;;;99.18;55.42;;;;;;;;;;5096031;28;20024;-68
2022/02/10 23:20:48;;;;;;;96.25;53.78;;;;;;;;;;5095856;28;20034;-65
2022/02/10 23:23:15;;;;;;;96.97;55.92;;;;;;;;;;5077666;28;20103;-66
2022/02/10 23:25:43;;;;;;;95.88;53.65;;;;;;;;;;5096056;28;20480;-64
2022/02/10 23:28:13;;;;;;;103.10;54.58;;;;;;;;;;5077619;28;20035;-65
2022/02/10 23:30:43;;;;;;;109.93;59.50;;;;;;;;;;5095791;28;20035;-65
2022/02/10 23:33:22;;;;;;;104.90;56.28;;;;;;;;;;5077133;28;20028;-64
2022/02/10 23:38:17;;;;;;;107.80;57.15;;;;;;;;;;5095634;28;20032;-66
2022/02/10 23:43:28;;;;;;;110.28;57.70;;;;;;;;;;5095501;28;20080;-65
2022/02/10 23:45:55;;;;;;;128.30;70.57;;;;;;;;;;5095400;28;20380;-64
2022/02/10 23:48:21;;;;;;;131.38;70.93;;;;;;;;;;5095389;28;20453;-65
2022/02/10 23:50:48;;;;;;;120.28;65.10;;;;;;;;;;5095324;28;20034;-66
2022/02/10 23:53:14;;;;;;;153.85;78.85;;;;;;;;;;5095181;28;20047;-65
2022/02/10 23:55:41;;;;;;;153.55;80.82;;;;;;;;;;5077058;28;20485;-65
